createdAt,value
2023-02-02T00:01:21.649Z,5.33
2023-02-02T00:05:23.155Z,6.60
2023-02-02T00:09:28.884Z,5.83
2023-02-02T00:13:30.349Z,5.20
2023-02-02T00:17:31.644Z,5.73
2023-02-02T00:21:33.096Z,5.63
2023-02-02T00:25:34.914Z,5.80
2023-02-02T00:29:36.215Z,5.13
2023-02-02T00:33:38.139Z,5.83
2023-02-02T00:37:39.471Z,5.30
2023-02-02T00:41:41.614Z,4.80
2023-02-02T00:45:43.213Z,6.73
2023-02-02T00:49:44.547Z,5.53
2023-02-02T00:53:45.840Z,5.53
2023-02-02T00:57:47.867Z,6.13
2023-02-02T01:01:49.249Z,5.17
2023-02-02T01:05:51.886Z,5.90
2023-02-02T01:09:53.381Z,4.90
2023-02-02T01:13:54.681Z,5.30
2023-02-02T01:17:57.071Z,4.70
2023-02-02T01:21:58.547Z,6.73
2023-02-02T01:26:01.977Z,5.43
2023-02-02T01:30:04.331Z,5.43
2023-02-02T01:34:05.649Z,5.47
2023-02-02T01:38:06.940Z,5.63
2023-02-02T01:42:14.381Z,5.20
2023-02-02T01:46:34.057Z,6.20
2023-02-02T01:50:35.713Z,6.33
2023-02-02T01:54:41.845Z,6.60
2023-02-02T01:58:44.546Z,6.90
2023-02-02T02:02:49.002Z,6.03
2023-02-02T02:06:53.473Z,6.53
2023-02-02T02:10:54.955Z,6.47
2023-02-02T02:15:14.900Z,7.40
2023-02-02T02:20:06.111Z,5.20
2023-02-02T02:25:05.243Z,6.27
2023-02-02T02:29:26.982Z,5.57
2023-02-02T02:33:42.754Z,5.80
2023-02-02T02:37:58.648Z,5.73
2023-02-02T02:42:12.182Z,6.00
2023-02-02T02:46:13.535Z,5.83
2023-02-02T02:50:15.258Z,6.47
2023-02-02T02:54:34.208Z,6.27
2023-02-02T02:58:50.195Z,5.87
2023-02-02T03:03:03.299Z,6.27
2023-02-02T03:07:13.256Z,8.93
2023-02-02T03:11:16.308Z,6.43
2023-02-02T03:15:19.156Z,7.33
2023-02-02T03:19:21.061Z,6.87
2023-02-02T03:23:23.104Z,7.50
2023-02-02T03:27:24.491Z,7.80
2023-02-02T03:31:28.362Z,7.97
2023-02-02T03:35:29.762Z,7.60
2023-02-02T03:39:31.085Z,8.30
2023-02-02T03:43:32.542Z,7.03
2023-02-02T03:47:33.903Z,8.77
2023-02-02T03:51:35.305Z,8.20
2023-02-02T03:55:40.449Z,8.23
2023-02-02T03:59:41.757Z,8.13
2023-02-02T04:03:43.142Z,7.47
2023-02-02T04:07:44.468Z,8.10
2023-02-02T04:11:45.960Z,8.63
2023-02-02T04:15:47.325Z,8.87
2023-02-02T04:19:48.767Z,7.83
2023-02-02T04:23:50.100Z,8.50
2023-02-02T04:27:51.424Z,9.20
2023-02-02T04:31:52.749Z,9.10
2023-02-02T04:35:54.433Z,8.70
2023-02-02T04:39:55.811Z,9.47
2023-02-02T04:43:57.168Z,9.07
2023-02-02T04:47:58.517Z,9.50
2023-02-02T04:51:59.858Z,9.40
2023-02-02T04:56:14.663Z,11.07
2023-02-02T05:00:16.615Z,9.07
2023-02-02T05:04:18.102Z,9.67
2023-02-02T05:08:19.543Z,10.53
2023-02-02T05:12:20.958Z,10.70
2023-02-02T05:16:23.745Z,10.93
2023-02-02T05:20:25.167Z,10.53
2023-02-02T05:24:27.645Z,11.53
2023-02-02T05:28:29.390Z,11.17
2023-02-02T05:32:30.704Z,12.00
2023-02-02T05:36:32.561Z,11.70
2023-02-02T05:40:33.939Z,11.53
2023-02-02T05:44:35.346Z,12.17
2023-02-02T05:48:36.758Z,11.53
2023-02-02T05:52:40.304Z,11.73
2023-02-02T05:56:41.686Z,11.77
2023-02-02T06:00:43.001Z,13.70
2023-02-02T06:04:44.336Z,12.40
2023-02-02T06:08:45.664Z,11.57
2023-02-02T06:12:47.023Z,12.70
2023-02-02T06:16:48.403Z,13.30
2023-02-02T06:20:59.575Z,12.20
2023-02-02T06:25:01.146Z,13.07
2023-02-02T06:29:05.474Z,11.67
2023-02-02T06:33:07.365Z,12.20
2023-02-02T06:37:10.994Z,12.13
2023-02-02T06:41:14.418Z,12.63
2023-02-02T06:45:15.789Z,13.27
2023-02-02T06:49:20.266Z,13.13
2023-02-02T06:53:27.263Z,13.20
2023-02-02T06:57:28.729Z,12.80
2023-02-02T07:01:30.192Z,12.20
2023-02-02T07:05:34.392Z,12.03
2023-02-02T07:09:38.518Z,10.83
2023-02-02T07:13:39.899Z,10.60
2023-02-02T07:17:41.225Z,9.70
2023-02-02T07:21:45.311Z,9.27
2023-02-02T07:25:46.643Z,9.40
2023-02-02T07:29:47.953Z,10.37
2023-02-02T07:33:52.379Z,9.70
2023-02-02T07:37:54.640Z,8.97
2023-02-02T07:41:56.093Z,9.70
2023-02-02T07:46:05.630Z,9.63
2023-02-02T07:50:09.909Z,8.73
2023-02-02T07:54:11.221Z,8.37
2023-02-02T07:58:15.462Z,9.23
2023-02-02T08:02:16.920Z,9.43
2023-02-02T08:06:20.294Z,10.13
2023-02-02T08:10:21.736Z,8.90
2023-02-02T08:14:23.090Z,8.90
2023-02-02T08:18:24.616Z,8.47
2023-02-02T08:22:25.944Z,8.63
2023-02-02T08:26:29.949Z,8.93
2023-02-02T08:30:48.453Z,10.07
2023-02-02T08:34:51.723Z,9.73
2023-02-02T08:38:53.141Z,9.57
2023-02-02T08:42:54.980Z,10.10
2023-02-02T08:46:56.443Z,10.07
2023-02-02T08:50:59.084Z,10.43
2023-02-02T08:55:00.450Z,10.60
2023-02-02T08:59:04.837Z,9.80
2023-02-02T09:03:06.333Z,10.13
2023-02-02T09:07:07.749Z,10.60
2023-02-02T09:11:11.596Z,11.70
2023-02-02T09:15:13.619Z,10.37
2023-02-02T09:19:15.022Z,11.60
2023-02-02T09:23:16.431Z,11.07
2023-02-02T09:27:17.766Z,11.03
2023-02-02T09:31:19.182Z,11.43
2023-02-02T09:35:20.557Z,10.87
2023-02-02T09:39:22.608Z,10.73
2023-02-02T09:43:50.326Z,11.37
2023-02-02T09:48:02.367Z,11.03
2023-02-02T09:52:13.435Z,11.63
2023-02-02T09:56:25.108Z,10.77
2023-02-02T10:00:42.306Z,10.77
2023-02-02T10:04:49.108Z,10.73
2023-02-02T10:08:55.591Z,10.70
2023-02-02T10:13:13.840Z,10.63
2023-02-02T10:17:30.480Z,10.43
2023-02-02T10:21:40.257Z,10.70
2023-02-02T10:25:52.248Z,10.27
2023-02-02T10:29:59.306Z,10.93
2023-02-02T10:34:11.309Z,10.30
2023-02-02T10:38:15.653Z,10.90
2023-02-02T10:42:39.340Z,11.37
2023-02-02T10:46:45.578Z,11.20
2023-02-02T10:50:51.775Z,10.20
2023-02-02T10:55:18.774Z,10.77
2023-02-02T10:59:30.900Z,9.57
2023-02-02T11:03:32.936Z,10.33
2023-02-02T11:07:36.556Z,10.17
2023-02-02T11:11:41.808Z,10.93
2023-02-02T11:15:43.349Z,9.60
2023-02-02T11:19:45.208Z,10.23
2023-02-02T11:23:55.240Z,9.40
2023-02-02T11:27:56.586Z,9.47
2023-02-02T11:31:58.035Z,8.90
2023-02-02T11:36:02.373Z,9.13
2023-02-02T11:40:24.348Z,9.33
2023-02-02T11:44:28.151Z,8.90
2023-02-02T11:49:10.119Z,9.57
2023-02-02T11:53:34.170Z,9.27
2023-02-02T11:57:35.511Z,8.27
2023-02-02T12:01:39.858Z,8.37
2023-02-02T12:05:44.008Z,8.03
2023-02-02T12:09:45.933Z,8.23
2023-02-02T12:14:02.135Z,9.63
2023-02-02T12:18:42.942Z,8.00
2023-02-02T12:23:10.915Z,8.70
2023-02-02T12:27:34.304Z,8.40
2023-02-02T12:31:46.006Z,7.60
2023-02-02T12:35:53.341Z,8.03
2023-02-02T12:40:18.442Z,8.97
2023-02-02T12:44:32.328Z,8.87
2023-02-02T12:48:44.700Z,7.33
2023-02-02T12:53:17.066Z,9.37
2023-02-02T12:58:09.195Z,7.40
2023-02-02T13:02:22.434Z,6.87
2023-02-02T13:06:36.136Z,6.50
2023-02-02T13:10:43.867Z,7.00
2023-02-02T13:14:50.341Z,6.47
2023-02-02T13:18:56.702Z,5.97
2023-02-02T13:23:03.240Z,6.03
2023-02-02T13:27:07.617Z,5.73
2023-02-02T13:31:33.790Z,6.43
2023-02-02T13:35:52.151Z,5.47
2023-02-02T13:40:04.742Z,5.23
2023-02-02T13:44:08.699Z,5.37
2023-02-02T13:48:30.248Z,4.50
2023-02-02T13:53:14.991Z,4.83
2023-02-02T13:57:45.545Z,5.93
2023-02-02T14:01:52.205Z,4.37
2023-02-02T14:06:07.502Z,4.40
2023-02-02T14:10:23.658Z,3.90
2023-02-02T14:14:39.185Z,4.23
2023-02-02T14:18:54.009Z,4.10
2023-02-02T14:22:55.421Z,4.27
2023-02-02T14:26:59.321Z,4.27
2023-02-02T14:31:26.237Z,3.87
2023-02-02T14:35:27.796Z,3.97
2023-02-02T14:39:30.178Z,3.93
2023-02-02T14:43:45.628Z,3.40
2023-02-02T14:47:53.419Z,3.67
2023-02-02T14:52:01.469Z,3.97
2023-02-02T14:56:15.118Z,3.60
2023-02-02T15:00:26.332Z,3.20
2023-02-02T15:04:29.034Z,3.17
2023-02-02T15:08:30.484Z,2.90
2023-02-02T15:12:36.777Z,3.10
2023-02-02T15:16:40.069Z,3.57
2023-02-02T15:20:50.748Z,3.07
2023-02-02T15:24:53.813Z,3.10
2023-02-02T15:29:31.167Z,3.20
2023-02-02T15:33:44.527Z,3.50
2023-02-02T15:37:50.300Z,3.20
2023-02-02T15:42:13.484Z,2.80
2023-02-02T15:46:26.708Z,2.70
2023-02-02T15:50:28.427Z,3.20
2023-02-02T15:54:33.056Z,3.63
2023-02-02T15:58:38.880Z,3.23
2023-02-02T16:02:44.526Z,2.77
2023-02-02T16:06:46.777Z,3.60
2023-02-02T16:10:49.341Z,3.30
2023-02-02T16:14:52.895Z,3.00
2023-02-02T16:19:14.701Z,2.90
2023-02-02T16:23:31.224Z,3.30
2023-02-02T16:27:33.027Z,3.80
2023-02-02T16:31:35.252Z,3.93
2023-02-02T16:35:38.672Z,3.17
2023-02-02T16:39:40.650Z,3.20
2023-02-02T16:43:43.365Z,3.30
2023-02-02T16:47:44.859Z,3.33
2023-02-02T16:51:48.772Z,3.20
2023-02-02T16:55:51.600Z,2.90
2023-02-02T16:59:57.007Z,3.07
2023-02-02T17:03:59.105Z,2.67
2023-02-02T17:08:05.350Z,3.37
2023-02-02T17:12:33.814Z,3.60
2023-02-02T17:16:36.105Z,3.27
2023-02-02T17:20:40.095Z,3.20
2023-02-02T17:24:47.501Z,3.27
2023-02-02T17:28:50.624Z,2.90
2023-02-02T17:32:52.087Z,3.43
2023-02-02T17:36:54.260Z,4.13
2023-02-02T17:41:01.064Z,3.50
2023-02-02T17:45:03.515Z,4.13
2023-02-02T17:49:04.976Z,3.63
2023-02-02T17:53:06.364Z,4.10
2023-02-02T17:57:07.746Z,4.70
2023-02-02T18:01:11.599Z,4.33
2023-02-02T18:05:14.071Z,4.50
2023-02-02T18:09:15.428Z,5.03
2023-02-02T18:13:19.509Z,6.10
2023-02-02T18:17:21.142Z,5.47
2023-02-02T18:21:22.566Z,4.80
2023-02-02T18:25:25.649Z,5.97
2023-02-02T18:29:27.264Z,6.40
2023-02-02T18:33:28.605Z,5.87
2023-02-02T18:37:30.108Z,6.83
2023-02-02T18:41:31.509Z,8.20
2023-02-02T18:45:32.881Z,8.63
2023-02-02T18:49:34.249Z,9.73
2023-02-02T18:53:35.629Z,9.70
2023-02-02T18:57:37.015Z,9.67
2023-02-02T19:01:38.479Z,10.20
2023-02-02T19:05:58.341Z,9.57
2023-02-02T19:09:59.690Z,10.80
2023-02-02T19:14:01.348Z,11.33
2023-02-02T19:18:02.955Z,12.17
2023-02-02T19:22:19.914Z,11.13
2023-02-02T19:26:24.620Z,10.97
2023-02-02T19:30:26.452Z,10.90
2023-02-02T19:34:29.025Z,10.60
2023-02-02T19:38:30.417Z,10.20
2023-02-02T19:42:32.177Z,9.70
2023-02-02T19:46:41.562Z,10.03
2023-02-02T19:50:43.683Z,10.40
2023-02-02T19:54:48.956Z,10.20
2023-02-02T19:58:50.317Z,9.17
2023-02-02T20:02:58.021Z,8.80
2023-02-02T20:07:00.000Z,8.70
2023-02-02T20:11:23.977Z,8.40
2023-02-02T20:15:33.729Z,8.67
2023-02-02T20:19:40.298Z,7.73
2023-02-02T20:23:44.121Z,7.77
2023-02-02T20:27:45.447Z,8.60
2023-02-02T20:31:47.397Z,9.80
2023-02-02T20:35:49.155Z,8.60
2023-02-02T20:39:57.432Z,9.13
2023-02-02T20:43:58.738Z,9.17
2023-02-02T20:48:00.003Z,9.17
2023-02-02T20:52:04.301Z,10.53
2023-02-02T20:56:05.982Z,9.27
2023-02-02T21:00:11.112Z,10.30
2023-02-02T21:04:12.453Z,9.97
2023-02-02T21:08:13.782Z,9.90
2023-02-02T21:12:15.852Z,10.87
2023-02-02T21:16:17.242Z,8.83
2023-02-02T21:20:19.091Z,9.80
2023-02-02T21:24:20.422Z,9.90
2023-02-02T21:28:21.747Z,8.40
2023-02-02T21:32:23.056Z,8.07
2023-02-02T21:36:32.975Z,8.57
2023-02-02T21:40:34.699Z,9.07
2023-02-02T21:44:57.544Z,8.07
2023-02-02T21:48:59.311Z,8.43
2023-02-02T21:53:09.655Z,8.23
2023-02-02T21:57:22.294Z,8.23
2023-02-02T22:01:36.116Z,8.53
2023-02-02T22:05:37.596Z,8.90
2023-02-02T22:09:41.302Z,9.27
2023-02-02T22:13:42.776Z,9.03
2023-02-02T22:17:45.797Z,9.23
2023-02-02T22:21:47.138Z,8.87
2023-02-02T22:25:52.859Z,8.90
2023-02-02T22:30:02.576Z,8.17
2023-02-02T22:34:03.932Z,8.60
2023-02-02T22:38:05.887Z,9.03
2023-02-02T22:42:07.143Z,9.27
2023-02-02T22:46:08.545Z,8.63
2023-02-02T22:50:10.158Z,9.37
2023-02-02T22:54:11.547Z,7.73
2023-02-02T22:58:13.018Z,8.13
2023-02-02T23:02:14.345Z,8.40
2023-02-02T23:06:15.711Z,8.30
2023-02-02T23:10:20.225Z,7.93
2023-02-02T23:14:21.552Z,8.43
2023-02-02T23:18:22.983Z,8.10
2023-02-02T23:22:24.266Z,7.60
2023-02-02T23:26:50.160Z,7.97
2023-02-02T23:30:54.376Z,7.77
2023-02-02T23:34:55.707Z,7.43
2023-02-02T23:38:57.048Z,8.17
2023-02-02T23:42:58.386Z,7.60
2023-02-02T23:47:01.734Z,8.40
2023-02-02T23:51:03.222Z,7.40
2023-02-02T23:55:05.395Z,7.83
2023-02-02T23:59:07.508Z,7.30
